Time;durP1;ratioP1;P1;durP2;ratioP2;P2;SDS_P1;SDS_P2;PMS_P1;PMS_P2;Temp;Humidity;BMP_temperature;BMP_pressure;BME280_temperature;BME280_humidity;BME280_pressure;Samples;Min_cycle;Max_cycle;Signal;HPM_P1;HPM_P2
2022/10/03 00:00:02;;;;;;;3.80;1.33;;;10.00;99.90;;;;;;4970465;28;20118;-81
2022/10/03 00:02:37;;;;;;;2.42;1.10;;;9.90;99.90;;;;;;4971811;28;20058;-81
2022/10/03 00:05:27;;;;;;;3.67;1.20;;;9.90;99.90;;;;;;4972076;28;20498;-81
2022/10/03 00:08:15;;;;;;;3.50;1.20;;;9.90;99.90;;;;;;4983700;28;20102;-82
2022/10/03 00:10:51;;;;;;;2.53;1.00;;;9.90;99.90;;;;;;4987881;28;20411;-82
2022/10/03 00:13:53;;;;;;;6.70;1.35;;;9.90;99.90;;;;;;4986213;28;20022;-81
2022/10/03 00:16:35;;;;;;;3.38;1.17;;;9.80;99.90;;;;;;4973019;28;20026;-81
2022/10/03 00:19:19;;;;;;;3.38;1.40;;;9.80;99.90;;;;;;4972170;28;20491;-81
2022/10/03 00:22:17;;;;;;;2.53;1.10;;;9.80;99.90;;;;;;4972272;28;20069;-81
2022/10/03 00:25:20;;;;;;;2.72;1.13;;;9.80;99.90;;;;;;4989044;28;20084;-81
2022/10/03 00:28:31;;;;;;;2.28;0.98;;;9.70;99.90;;;;;;4975089;28;20066;-81
2022/10/03 00:31:23;;;;;;;2.83;0.90;;;9.70;99.90;;;;;;4975627;28;20019;-81
2022/10/03 00:34:00;;;;;;;3.25;1.30;;;9.70;99.90;;;;;;4975524;28;20018;-81
2022/10/03 00:36:37;;;;;;;2.28;1.10;;;9.70;99.90;;;;;;4988745;28;20042;-81
2022/10/03 00:39:13;;;;;;;4.13;1.00;;;9.70;99.90;;;;;;4977142;28;20128;-81
2022/10/03 00:42:00;;;;;;;2.75;1.10;;;9.70;99.90;;;;;;4974453;28;20054;-81
2022/10/03 00:44:58;;;;;;;4.13;1.20;;;9.70;99.90;;;;;;4988574;28;20420;-81
2022/10/03 00:48:08;;;;;;;3.42;1.23;;;9.70;99.90;;;;;;4956268;28;20030;-81
2022/10/03 00:51:04;;;;;;;5.05;1.33;;;9.70;99.90;;;;;;4991091;28;20039;-81
2022/10/03 00:53:59;;;;;;;2.65;1.05;;;9.70;99.90;;;;;;4974665;28;20019;-81
2022/10/03 00:56:54;;;;;;;2.97;0.90;;;9.60;99.90;;;;;;4976866;28;20176;-81
2022/10/03 00:59:47;;;;;;;2.65;1.15;;;9.60;99.90;;;;;;4975542;28;20051;-82
2022/10/03 01:02:45;;;;;;;3.53;1.08;;;9.60;99.90;;;;;;4975686;28;20038;-82
2022/10/03 01:05:34;;;;;;;2.75;1.23;;;9.60;99.90;;;;;;4971659;28;20093;-82
2022/10/03 01:08:03;;;;;;;3.83;1.70;;;9.60;99.90;;;;;;4968290;28;20098;-82
2022/10/03 01:10:43;;;;;;;4.53;1.27;;;9.50;99.90;;;;;;4975454;28;20364;-81
2022/10/03 01:13:23;;;;;;;3.45;1.15;;;9.50;99.90;;;;;;4975548;28;20027;-82
2022/10/03 01:16:30;;;;;;;3.60;1.13;;;9.50;99.90;;;;;;4980478;28;20038;-82
2022/10/03 01:19:26;;;;;;;2.60;1.25;;;9.40;99.90;;;;;;4986850;28;20063;-83
2022/10/03 01:22:14;;;;;;;4.57;1.30;;;9.40;99.90;;;;;;4995126;28;20087;-81
2022/10/03 01:25:06;;;;;;;4.72;1.52;;;9.30;99.90;;;;;;4976016;28;20026;-82
2022/10/03 01:31:01;;;;;;;2.60;0.93;;;9.30;99.90;;;;;;4974712;28;20069;-82
2022/10/03 01:33:43;;;;;;;3.80;0.98;;;9.30;99.90;;;;;;4975385;28;20022;-82
2022/10/03 01:36:24;;;;;;;3.03;1.10;;;9.20;99.90;;;;;;4990275;28;20027;-81
2022/10/03 01:38:56;;;;;;;1.95;1.10;;;9.20;99.90;;;;;;4991142;28;20046;-82
2022/10/03 01:41:48;;;;;;;3.75;1.20;;;9.30;99.90;;;;;;4975476;28;20031;-82
2022/10/03 01:44:29;;;;;;;2.83;1.10;;;9.20;99.90;;;;;;4972286;28;20058;-81
2022/10/03 01:47:15;;;;;;;2.85;1.38;;;9.20;99.90;;;;;;4975246;28;20044;-81
2022/10/03 01:50:16;;;;;;;1.60;0.82;;;9.20;99.90;;;;;;4976393;28;20038;-81
2022/10/03 01:52:58;;;;;;;4.15;1.00;;;9.20;99.90;;;;;;4975086;28;20030;-81
2022/10/03 01:56:05;;;;;;;2.17;1.07;;;9.10;99.90;;;;;;4974830;28;20022;-81
2022/10/03 01:58:43;;;;;;;2.28;0.90;;;9.10;99.90;;;;;;4974587;28;20070;-81
2022/10/03 02:01:47;;;;;;;3.05;1.00;;;9.10;99.90;;;;;;4974905;28;20058;-81
2022/10/03 02:04:49;;;;;;;2.25;0.98;;;9.00;99.90;;;;;;4924284;29;20107;-82
2022/10/03 02:07:39;;;;;;;2.53;1.00;;;9.00;99.90;;;;;;4975879;28;20039;-80
2022/10/03 02:10:20;;;;;;;2.17;1.00;;;9.00;99.90;;;;;;4974312;28;20474;-81
2022/10/03 02:12:58;;;;;;;4.00;1.20;;;9.00;99.90;;;;;;4974834;28;20053;-81
2022/10/03 02:15:42;;;;;;;1.83;1.00;;;9.00;99.90;;;;;;4974589;28;20060;-80
2022/10/03 02:18:14;;;;;;;2.78;0.93;;;9.00;99.90;;;;;;4974553;28;20098;-80
2022/10/03 02:21:20;;;;;;;2.50;1.10;;;8.90;99.90;;;;;;4974284;28;20031;-80
2022/10/03 02:24:03;;;;;;;2.67;0.88;;;8.90;99.90;;;;;;4954564;28;20121;-81
2022/10/03 02:26:44;;;;;;;4.37;1.43;;;8.90;99.90;;;;;;4974222;28;20058;-80
2022/10/03 02:29:47;;;;;;;2.97;1.10;;;8.90;99.90;;;;;;4973541;28;20057;-80
2022/10/03 02:32:43;;;;;;;3.43;1.20;;;8.80;99.90;;;;;;4974035;28;20533;-80
2022/10/03 02:35:21;;;;;;;4.35;1.10;;;8.80;99.90;;;;;;4970952;28;20281;-80
2022/10/03 02:38:16;;;;;;;2.30;1.02;;;8.80;99.90;;;;;;4988655;28;20030;-80
2022/10/03 02:40:54;;;;;;;1.70;0.98;;;8.80;99.90;;;;;;4970617;28;20038;-81
2022/10/03 02:43:58;;;;;;;2.75;1.17;;;8.80;99.90;;;;;;4970138;28;20015;-81
2022/10/03 02:46:57;;;;;;;2.93;1.20;;;8.80;99.90;;;;;;4973944;28;20041;-80
2022/10/03 02:50:00;;;;;;;3.28;1.10;;;8.70;99.90;;;;;;4972222;28;20281;-81
2022/10/03 02:52:35;;;;;;;2.67;1.00;;;8.80;99.90;;;;;;4961636;28;20086;-82
2022/10/03 02:55:28;;;;;;;1.80;0.90;;;8.80;99.90;;;;;;4972089;28;20030;-80
2022/10/03 02:58:18;;;;;;;3.30;1.38;;;8.80;99.90;;;;;;4973369;28;20058;-81
2022/10/03 03:01:23;;;;;;;2.03;1.00;;;8.70;99.90;;;;;;4973544;28;20023;-81
2022/10/03 03:04:36;;;;;;;2.42;1.10;;;8.80;99.90;;;;;;4961066;28;20019;-82
2022/10/03 03:07:37;;;;;;;3.42;1.40;;;8.90;99.90;;;;;;4991402;28;20030;-80
2022/10/03 03:10:21;;;;;;;3.03;1.25;;;9.00;99.90;;;;;;4983819;28;20115;-81
2022/10/03 03:13:21;;;;;;;2.97;0.95;;;9.00;99.90;;;;;;4976653;28;20078;-81
2022/10/03 03:16:01;;;;;;;3.95;1.40;;;9.00;99.90;;;;;;4974528;28;20110;-80
2022/10/03 03:18:38;;;;;;;3.90;1.25;;;8.90;99.90;;;;;;4975000;28;20034;-81
2022/10/03 03:21:10;;;;;;;3.00;1.00;;;8.90;99.90;;;;;;4974259;28;20031;-81
2022/10/03 03:23:59;;;;;;;4.20;1.48;;;8.80;99.90;;;;;;4973661;28;20117;-81
2022/10/03 03:27:01;;;;;;;2.42;1.10;;;8.80;99.90;;;;;;4973758;28;20054;-81
2022/10/03 03:29:40;;;;;;;2.72;1.10;;;8.80;99.90;;;;;;4973907;28;20162;-81
2022/10/03 03:32:42;;;;;;;2.40;1.20;;;8.90;99.90;;;;;;4973502;28;20373;-81
2022/10/03 03:35:16;;;;;;;4.07;1.52;;;8.90;99.90;;;;;;4970727;28;20113;-81
2022/10/03 03:38:31;;;;;;;3.05;1.23;;;8.90;99.90;;;;;;4982472;28;20484;-81
2022/10/03 03:41:25;;;;;;;2.33;1.20;;;8.90;99.90;;;;;;4963632;28;20039;-81
2022/10/03 03:44:27;;;;;;;2.13;0.90;;;8.80;99.90;;;;;;4967511;28;20035;-81
2022/10/03 03:47:17;;;;;;;2.00;0.90;;;8.80;99.90;;;;;;4973702;28;20045;-81
2022/10/03 03:50:20;;;;;;;2.10;1.00;;;8.70;99.90;;;;;;4973676;28;20035;-81
2022/10/03 03:52:49;;;;;;;3.20;1.20;;;8.60;99.90;;;;;;4973466;28;20026;-81
2022/10/03 03:55:33;;;;;;;3.03;1.10;;;8.50;99.90;;;;;;4973278;28;20152;-81
2022/10/03 03:58:37;;;;;;;2.13;1.00;;;8.50;99.90;;;;;;4973101;28;20062;-81
2022/10/03 04:01:10;;;;;;;3.33;1.00;;;8.50;99.90;;;;;;4976159;28;20402;-81
2022/10/03 04:03:47;;;;;;;5.25;1.05;;;8.50;99.90;;;;;;4978368;28;20030;-81
2022/10/03 04:06:19;;;;;;;3.35;1.30;;;8.50;99.90;;;;;;4978106;28;20031;-81
2022/10/03 04:09:29;;;;;;;2.17;0.93;;;8.40;99.90;;;;;;4978474;28;20035;-81
2022/10/03 04:12:18;;;;;;;3.15;1.30;;;8.40;99.90;;;;;;4977410;28;20027;-81
2022/10/03 04:15:24;;;;;;;3.08;1.00;;;8.40;99.90;;;;;;4977641;28;20027;-81
2022/10/03 04:21:14;;;;;;;1.67;1.00;;;8.30;99.90;;;;;;4967430;28;20046;-80
2022/10/03 04:24:06;;;;;;;2.22;1.23;;;8.30;99.90;;;;;;4975896;28;20015;-81
2022/10/03 04:26:47;;;;;;;1.85;1.20;;;8.30;99.90;;;;;;4975918;28;20070;-81
2022/10/03 04:29:40;;;;;;;2.72;1.23;;;8.30;99.90;;;;;;4974902;28;20110;-80
2022/10/03 04:32:23;;;;;;;2.92;1.27;;;8.20;99.90;;;;;;4974334;28;20050;-81
2022/10/03 04:35:07;;;;;;;2.45;1.25;;;8.20;99.90;;;;;;4974905;28;20054;-81
2022/10/03 04:38:11;;;;;;;3.05;1.30;;;8.20;99.90;;;;;;4979316;28;20050;-80
2022/10/03 04:41:00;;;;;;;1.80;1.13;;;8.20;99.90;;;;;;4974654;28;20080;-80
2022/10/03 04:43:42;;;;;;;2.45;0.93;;;8.20;99.90;;;;;;4975580;28;20035;-82
2022/10/03 04:46:42;;;;;;;2.38;1.33;;;8.20;99.90;;;;;;4990531;28;20035;-81
2022/10/03 04:49:25;;;;;;;1.83;1.10;;;8.20;99.90;;;;;;4988860;28;20015;-81
2022/10/03 04:52:01;;;;;;;1.73;1.10;;;8.20;99.90;;;;;;4991106;28;20041;-81
2022/10/03 04:54:30;;;;;;;4.50;1.08;;;8.10;99.90;;;;;;4996149;28;20071;-80
2022/10/03 04:57:45;;;;;;;2.10;1.17;;;8.10;99.90;;;;;;4981848;28;20038;-80
2022/10/03 05:00:23;;;;;;;1.67;1.00;;;8.10;99.90;;;;;;4992850;28;20058;-80
2022/10/03 05:03:21;;;;;;;2.72;1.40;;;8.20;99.90;;;;;;4993179;28;20102;-80
2022/10/03 05:06:10;;;;;;;2.17;1.05;;;8.10;99.90;;;;;;4981685;28;20031;-81
2022/10/03 05:09:20;;;;;;;4.55;1.30;;;8.10;99.90;;;;;;4963022;28;20023;-81
2022/10/03 05:12:26;;;;;;;1.92;1.00;;;8.10;99.90;;;;;;4973471;28;20062;-81
2022/10/03 05:15:32;;;;;;;3.10;1.38;;;8.10;99.90;;;;;;4976698;28;20026;-81
2022/10/03 05:18:24;;;;;;;3.45;1.10;;;8.10;99.90;;;;;;4985937;28;20058;-81
2022/10/03 05:20:50;;;;;;;3.35;1.30;;;8.10;99.90;;;;;;4979289;28;20550;-81
2022/10/03 05:24:03;;;;;;;2.60;1.27;;;8.20;99.90;;;;;;4989200;28;20035;-81
2022/10/03 05:26:41;;;;;;;2.67;1.15;;;8.20;99.90;;;;;;4983107;28;20054;-80
2022/10/03 05:29:28;;;;;;;2.88;0.98;;;8.10;99.90;;;;;;5002340;28;20026;-80
2022/10/03 05:32:22;;;;;;;2.83;1.35;;;8.10;99.90;;;;;;4992635;28;20057;-80
2022/10/03 05:34:59;;;;;;;;;;;8.20;99.90;;;;;;4989065;28;20035;-80
2022/10/03 05:37:40;;;;;;;4.00;1.10;;;8.10;99.90;;;;;;4988468;28;19960;-81
2022/10/03 05:40:18;;;;;;;4.22;1.13;;;8.10;99.90;;;;;;4982390;28;20039;-80
2022/10/03 05:43:20;;;;;;;2.75;1.38;;;8.20;99.90;;;;;;4976736;28;20073;-81
2022/10/03 05:45:45;;;;;;;3.65;1.10;;;8.20;99.90;;;;;;4992430;28;20489;-82
2022/10/03 05:48:37;;;;;;;2.45;1.17;;;8.20;99.90;;;;;;4977503;28;20026;-82
2022/10/03 05:51:46;;;;;;;3.70;1.48;;;8.20;99.90;;;;;;4995520;28;20014;-81
2022/10/03 05:54:40;;;;;;;2.55;1.25;;;8.20;99.90;;;;;;4985906;28;20031;-81
2022/10/03 05:57:42;;;;;;;4.05;1.30;;;8.20;99.90;;;;;;4982216;28;20031;-81
2022/10/03 06:00:34;;;;;;;4.50;1.77;;;8.20;99.90;;;;;;4986100;28;20027;-80
2022/10/03 06:03:40;;;;;;;2.38;1.20;;;8.20;99.90;;;;;;4975949;28;20029;-81
2022/10/03 06:06:24;;;;;;;2.90;1.50;;;8.30;99.90;;;;;;4971766;28;20071;-81
2022/10/03 06:08:53;;;;;;;;;;;8.30;99.90;;;;;;4979972;28;20023;-82
2022/10/03 06:11:38;;;;;;;2.03;1.05;;;8.30;99.90;;;;;;4972226;28;19956;-82
2022/10/03 06:14:25;;;;;;;2.40;1.20;;;8.40;99.90;;;;;;4974228;28;20023;-81
2022/10/03 06:17:18;;;;;;;3.08;1.77;;;8.40;99.90;;;;;;4974531;28;20026;-81
2022/10/03 06:20:13;;;;;;;4.20;1.67;;;8.40;99.90;;;;;;4986954;28;20393;-81
2022/10/03 06:23:02;;;;;;;2.58;1.23;;;8.40;99.90;;;;;;4973710;28;20119;-81
2022/10/03 06:25:46;;;;;;;2.20;1.27;;;8.40;99.90;;;;;;4973330;28;20019;-81
2022/10/03 06:28:35;;;;;;;2.65;1.02;;;8.40;99.90;;;;;;4973821;28;20058;-82
2022/10/03 06:31:28;;;;;;;4.03;1.27;;;8.50;99.90;;;;;;4973370;28;20431;-81
2022/10/03 06:34:40;;;;;;;2.75;1.40;;;8.60;99.90;;;;;;4972440;28;20407;-82
2022/10/03 06:37:28;;;;;;;2.95;1.15;;;8.60;99.90;;;;;;4973713;28;20118;-82
2022/10/03 06:40:27;;;;;;;6.00;1.52;;;8.60;99.90;;;;;;4973317;28;20047;-81
2022/10/03 06:43:31;;;;;;;3.33;1.33;;;8.80;99.90;;;;;;4980534;28;20065;-81
2022/10/03 06:46:30;;;;;;;2.35;1.30;;;8.80;99.90;;;;;;4992255;28;20043;-81
2022/10/03 06:49:24;;;;;;;2.65;1.33;;;8.80;99.90;;;;;;4980245;28;20055;-81
2022/10/03 06:52:07;;;;;;;3.38;1.20;;;8.90;99.90;;;;;;4963084;28;20055;-80
2022/10/03 06:55:07;;;;;;;2.30;1.23;;;8.90;99.90;;;;;;4970890;28;20442;-81
2022/10/03 06:57:48;;;;;;;2.35;1.30;;;9.00;99.90;;;;;;4974034;28;20051;-81
2022/10/03 07:00:20;;;;;;;2.63;1.48;;;9.00;99.90;;;;;;4975209;28;20462;-81
2022/10/03 07:03:26;;;;;;;2.92;1.65;;;9.10;99.90;;;;;;4989265;28;20027;-81
2022/10/03 07:06:19;;;;;;;2.22;1.08;;;9.10;99.90;;;;;;4972837;28;20529;-81
2022/10/03 07:09:19;;;;;;;3.88;1.25;;;9.10;99.90;;;;;;4986773;28;20066;-80
2022/10/03 07:12:14;;;;;;;2.25;1.20;;;9.20;99.90;;;;;;4972439;28;20023;-81
2022/10/03 07:15:07;;;;;;;2.95;1.48;;;9.30;99.90;;;;;;4983674;28;20403;-81
2022/10/03 07:17:55;;;;;;;2.08;1.33;;;9.30;99.90;;;;;;4988065;28;20031;-81
2022/10/03 07:20:45;;;;;;;2.25;1.10;;;9.40;99.90;;;;;;4973034;28;20030;-81
2022/10/03 07:23:48;;;;;;;4.00;1.70;;;9.40;99.90;;;;;;4971804;28;20054;-80
2022/10/03 07:26:35;;;;;;;2.70;1.42;;;9.50;99.90;;;;;;4985747;28;20031;-80
2022/10/03 07:29:28;;;;;;;2.47;1.30;;;9.60;99.90;;;;;;4986363;28;20121;-80
2022/10/03 07:32:20;;;;;;;3.85;1.13;;;9.70;99.90;;;;;;4973241;28;20026;-80
2022/10/03 07:35:22;;;;;;;2.08;1.27;;;9.80;99.90;;;;;;4973556;28;20538;-80
2022/10/03 07:41:35;;;;;;;2.25;1.52;;;10.00;99.90;;;;;;4969280;28;20544;-82
2022/10/03 07:44:27;;;;;;;3.80;1.73;;;10.10;99.90;;;;;;4975182;28;20038;-82
2022/10/03 07:47:27;;;;;;;2.08;1.10;;;10.20;99.90;;;;;;4991857;28;20105;-81
2022/10/03 07:50:26;;;;;;;2.90;1.60;;;10.40;99.90;;;;;;4981098;28;20031;-81
2022/10/03 07:53:01;;;;;;;3.20;1.60;;;10.50;99.90;;;;;;4979456;28;20050;-81
2022/10/03 07:55:37;;;;;;;3.35;1.65;;;10.60;99.90;;;;;;4986358;28;20029;-81
2022/10/03 07:58:36;;;;;;;4.10;1.70;;;10.60;99.90;;;;;;4975622;28;20078;-82
2022/10/03 08:01:32;;;;;;;3.92;1.67;;;10.70;99.90;;;;;;4974705;28;20489;-82
2022/10/03 08:04:27;;;;;;;5.80;1.75;;;10.90;99.90;;;;;;4971412;28;20053;-82
2022/10/03 08:07:26;;;;;;;3.72;1.55;;;11.00;99.90;;;;;;4972945;28;20726;-82
2022/10/03 08:10:41;;;;;;;2.85;1.20;;;11.10;99.90;;;;;;4976827;28;20344;-81
2022/10/03 08:13:30;;;;;;;4.10;1.92;;;11.20;99.90;;;;;;4966005;28;20155;-82
2022/10/03 08:16:09;;;;;;;5.15;1.73;;;11.40;99.90;;;;;;4991103;28;20370;-82
2022/10/03 08:19:02;;;;;;;4.47;2.08;;;11.50;99.90;;;;;;4975002;28;20393;-82
2022/10/03 08:21:47;;;;;;;;;;;11.60;99.90;;;;;;4974921;28;20186;-81
2022/10/03 08:24:41;;;;;;;3.00;1.55;;;11.80;99.90;;;;;;4975218;28;19961;-81
2022/10/03 08:27:38;;;;;;;4.00;1.67;;;11.90;99.90;;;;;;4974713;28;20101;-81
2022/10/03 08:30:35;;;;;;;3.38;1.73;;;12.10;99.90;;;;;;4972328;28;20407;-80
2022/10/03 08:33:31;;;;;;;6.72;1.88;;;12.20;99.90;;;;;;4988283;28;20486;-81
2022/10/03 08:36:44;;;;;;;3.08;1.60;;;12.30;99.90;;;;;;4974562;28;20026;-81
2022/10/03 08:39:55;;;;;;;5.70;1.55;;;12.40;99.90;;;;;;4934796;29;20067;-82
2022/10/03 08:42:57;;;;;;;4.18;1.50;;;12.50;99.90;;;;;;4935910;29;20043;-81
2022/10/03 08:45:49;;;;;;;5.10;1.77;;;12.70;99.90;;;;;;5006647;28;20030;-80
2022/10/03 08:48:53;;;;;;;4.60;1.80;;;12.80;99.90;;;;;;5003030;28;20027;-81
2022/10/03 08:52:11;;;;;;;3.17;1.35;;;12.90;99.90;;;;;;4976986;28;20033;-81
2022/10/03 08:55:00;;;;;;;2.92;1.45;;;13.00;99.90;;;;;;4975838;28;20077;-82
2022/10/03 08:57:47;;;;;;;4.00;1.70;;;13.10;99.90;;;;;;4986465;28;20071;-82
2022/10/03 09:00:21;;;;;;;4.30;1.55;;;13.30;99.90;;;;;;4975602;28;20574;-82
2022/10/03 09:03:05;;;;;;;;;;;13.40;99.90;;;;;;4977162;28;20027;-82
2022/10/03 09:05:49;;;;;;;;;;;13.60;99.90;;;;;;4990965;28;20382;-82
2022/10/03 09:08:44;;;;;;;3.38;1.52;;;13.70;99.90;;;;;;4972570;28;19925;-81
2022/10/03 09:11:29;;;;;;;3.88;1.67;;;13.90;99.90;;;;;;4973975;28;20027;-81
2022/10/03 09:14:28;;;;;;;4.45;1.73;;;14.20;99.90;;;;;;4990236;28;20137;-81
2022/10/03 09:17:02;;;;;;;3.75;1.92;;;14.40;99.90;;;;;;4989600;28;20035;-81
2022/10/03 09:20:15;;;;;;;5.22;1.80;;;15.50;99.90;;;;;;4975411;28;20142;-82
2022/10/03 09:23:10;;;;;;;2.28;0.98;;;17.50;99.90;;;;;;4975931;28;20351;-80
2022/10/03 09:26:09;;;;;;;2.63;1.05;;;19.20;99.90;;;;;;4989505;28;20493;-83
2022/10/03 09:29:08;;;;;;;3.55;1.13;;;20.20;99.90;;;;;;4974855;28;20023;-83
2022/10/03 09:32:10;;;;;;;5.55;0.90;;;20.90;99.90;;;;;;4928202;29;20075;-82
2022/10/03 09:35:33;;;;;;;3.08;1.00;;;21.10;99.90;;;;;;4949689;28;20035;-82
2022/10/03 09:38:28;;;;;;;6.10;1.50;;;21.30;99.90;;;;;;4950830;28;20031;-83
2022/10/03 09:41:32;;;;;;;3.30;1.17;;;21.50;99.90;;;;;;4937045;28;20275;-83
2022/10/03 09:44:36;;;;;;;3.30;1.10;;;21.80;99.90;;;;;;4966154;28;20426;-81
2022/10/03 09:50:20;;;;;;;4.95;1.20;;;22.60;99.90;;;;;;4966760;28;20051;-83
2022/10/03 09:53:29;;;;;;;5.53;1.17;;;23.10;99.90;;;;;;4960278;28;20039;-83
2022/10/03 09:56:07;;;;;;;3.67;1.27;;;23.60;99.90;;;;;;4970266;28;20035;-81
2022/10/03 09:58:54;;;;;;;6.40;1.50;;;23.80;99.90;;;;;;4967438;28;20077;-81
2022/10/03 10:01:56;;;;;;;4.55;1.10;;;24.10;99.90;;;;;;4970568;28;20059;-82
2022/10/03 10:04:40;;;;;;;3.92;1.13;;;24.50;99.90;;;;;;4984326;28;20065;-82
2022/10/03 10:07:38;;;;;;;3.65;0.90;;;24.60;99.90;;;;;;4984373;28;20054;-81
2022/10/03 10:10:21;;;;;;;3.75;1.23;;;24.80;99.90;;;;;;4981009;28;20026;-81
2022/10/03 10:13:27;;;;;;;2.78;1.00;;;24.60;99.90;;;;;;4979082;28;20051;-82
2022/10/03 10:16:12;;;;;;;3.38;1.10;;;25.20;99.90;;;;;;4980062;28;20034;-82
2022/10/03 10:18:58;;;;;;;5.35;1.40;;;25.80;99.90;;;;;;4983776;28;20070;-82
2022/10/03 10:21:39;;;;;;;4.07;1.00;;;26.30;99.90;;;;;;4968905;28;20101;-82
2022/10/03 10:24:45;;;;;;;3.58;0.90;;;26.60;99.90;;;;;;4970225;28;20033;-82
2022/10/03 10:27:35;;;;;;;4.10;1.10;;;26.80;99.90;;;;;;4984495;28;20035;-82
2022/10/03 10:30:34;;;;;;;2.55;0.88;;;26.30;99.90;;;;;;4975517;28;20027;-81
2022/10/03 10:32:59;;;;;;;4.70;1.08;;;25.70;99.90;;;;;;4983679;28;20036;-81
2022/10/03 10:35:43;;;;;;;2.28;0.75;;;25.40;99.90;;;;;;4968618;28;20038;-81
2022/10/03 10:38:28;;;;;;;4.20;0.85;;;25.20;99.90;;;;;;4968003;28;20042;-81
2022/10/03 10:41:13;;;;;;;4.32;0.90;;;24.50;99.90;;;;;;4985724;28;20046;-79
2022/10/03 10:43:47;;;;;;;1.83;0.70;;;23.90;99.90;;;;;;4985311;28;20023;-81
2022/10/03 10:46:52;;;;;;;4.88;1.05;;;24.10;99.90;;;;;;5001917;28;20019;-79
2022/10/03 10:49:38;;;;;;;3.70;0.93;;;23.80;99.90;;;;;;4986137;28;20129;-81
2022/10/03 10:52:25;;;;;;;3.85;0.80;;;23.90;99.90;;;;;;4968687;28;20453;-80
2022/10/03 10:55:28;;;;;;;3.75;0.88;;;24.70;99.90;;;;;;4980795;28;20035;-80
2022/10/03 10:58:34;;;;;;;3.50;1.13;;;24.50;99.90;;;;;;4968328;28;20046;-80
2022/10/03 11:01:09;;;;;;;3.20;0.60;;;24.70;99.90;;;;;;4969446;28;20023;-80
2022/10/03 11:04:09;;;;;;;5.50;0.90;;;25.50;99.90;;;;;;4984872;28;20687;-80
2022/10/03 11:07:12;;;;;;;3.67;1.00;;;25.90;99.90;;;;;;4965033;28;20026;-80
2022/10/03 11:10:09;;;;;;;;;;;25.20;99.90;;;;;;4981053;28;20031;-80
2022/10/03 11:13:15;;;;;;;2.47;0.68;;;24.80;99.90;;;;;;4933480;28;19955;-82
2022/10/03 11:16:00;;;;;;;2.42;0.70;;;24.90;99.90;;;;;;4968075;28;20027;-81
2022/10/03 11:18:47;;;;;;;2.75;0.65;;;25.30;99.90;;;;;;4983456;28;20035;-81
2022/10/03 11:21:37;;;;;;;2.78;0.60;;;25.20;99.90;;;;;;4967747;28;20031;-82
2022/10/03 11:24:41;;;;;;;2.78;0.80;;;25.00;99.90;;;;;;4966971;28;20023;-82
2022/10/03 11:27:10;;;;;;;2.25;0.63;;;24.70;99.90;;;;;;4968361;28;20038;-82
2022/10/03 11:30:10;;;;;;;3.58;1.00;;;24.90;99.90;;;;;;4968025;28;20035;-82
2022/10/03 11:32:48;;;;;;;3.55;0.60;;;25.60;99.90;;;;;;4981852;28;20117;-83
2022/10/03 11:35:56;;;;;;;3.28;0.80;;;25.70;99.90;;;;;;4968170;28;20038;-82
2022/10/03 11:38:29;;;;;;;4.53;0.90;;;25.50;99.90;;;;;;4966938;28;20137;-82
2022/10/03 11:41:19;;;;;;;2.13;0.90;;;25.50;99.90;;;;;;4982568;28;20134;-83
2022/10/03 11:43:54;;;;;;;2.45;0.75;;;25.60;99.90;;;;;;4983430;28;20034;-82
2022/10/03 11:46:58;;;;;;;3.10;0.80;;;25.40;99.90;;;;;;4984410;28;20069;-82
2022/10/03 11:49:45;;;;;;;2.75;1.20;;;25.70;99.90;;;;;;4965112;28;20033;-82
2022/10/03 11:52:33;;;;;;;1.83;0.60;;;25.90;99.90;;;;;;4977992;28;20035;-81
2022/10/03 11:55:22;;;;;;;3.05;0.70;;;26.30;99.90;;;;;;4959275;28;20031;-81
2022/10/03 11:58:07;;;;;;;2.00;0.70;;;26.40;99.90;;;;;;4969913;28;20034;-81
2022/10/03 12:00:35;;;;;;;2.47;0.95;;;26.50;99.90;;;;;;4980192;28;20030;-81
2022/10/03 12:03:20;;;;;;;4.93;0.80;;;26.70;99.70;;;;;;4966577;28;20031;-81
2022/10/03 12:09:13;;;;;;;3.03;0.60;;;27.50;99.70;;;;;;4967819;28;20338;-80
2022/10/03 12:11:54;;;;;;;2.80;0.70;;;27.50;98.80;;;;;;4982939;28;20181;-80
2022/10/03 12:14:45;;;;;;;2.95;0.75;;;27.60;98.10;;;;;;4966236;28;20023;-81
2022/10/03 12:17:22;;;;;;;3.20;0.73;;;27.70;98.80;;;;;;4967579;28;20031;-80
2022/10/03 12:19:57;;;;;;;2.25;0.60;;;27.40;98.20;;;;;;4981147;28;20031;-80
2022/10/03 12:22:37;;;;;;;4.47;0.82;;;27.40;98.60;;;;;;4977963;28;20465;-80
2022/10/03 12:25:26;;;;;;;2.30;0.70;;;27.50;97.90;;;;;;4973189;28;20098;-81
2022/10/03 12:28:15;;;;;;;2.35;0.70;;;27.00;98.60;;;;;;4947717;28;20053;-81
2022/10/03 12:30:55;;;;;;;1.88;0.60;;;26.10;98.90;;;;;;4985976;28;20050;-81
2022/10/03 12:33:35;;;;;;;3.22;0.50;;;25.20;99.50;;;;;;4986834;28;20035;-80
2022/10/03 12:36:38;;;;;;;3.38;0.70;;;24.50;99.90;;;;;;4969337;28;20023;-81
2022/10/03 12:39:38;;;;;;;2.38;0.60;;;24.00;99.90;;;;;;4970119;28;20026;-81
2022/10/03 12:42:15;;;;;;;1.45;0.50;;;23.50;99.90;;;;;;4970640;28;20642;-80
2022/10/03 12:45:01;;;;;;;1.48;0.40;;;23.20;99.90;;;;;;4985670;28;20023;-81
2022/10/03 12:48:06;;;;;;;1.73;0.47;;;23.00;99.90;;;;;;4992040;28;20089;-81
2022/10/03 12:50:53;;;;;;;1.55;0.70;;;22.70;99.90;;;;;;4971650;28;20042;-81
2022/10/03 12:53:42;;;;;;;2.17;0.60;;;22.40;99.90;;;;;;4970386;28;20141;-81
2022/10/03 12:56:32;;;;;;;1.55;0.40;;;22.00;99.90;;;;;;4985986;28;20380;-82
2022/10/03 12:59:19;;;;;;;1.45;0.43;;;21.60;99.90;;;;;;4985914;28;20386;-81
2022/10/03 13:02:11;;;;;;;4.07;0.80;;;21.20;99.90;;;;;;4986430;28;20027;-81
2022/10/03 13:05:07;;;;;;;2.85;0.70;;;21.00;99.90;;;;;;4984971;28;20034;-81
2022/10/03 13:08:02;;;;;;;2.53;0.45;;;20.90;99.90;;;;;;4971590;28;20091;-81
2022/10/03 13:10:37;;;;;;;2.70;0.50;;;20.80;99.90;;;;;;4970330;28;20030;-80
2022/10/03 13:13:04;;;;;;;3.38;0.60;;;20.70;99.90;;;;;;4969144;28;20130;-80
2022/10/03 13:15:46;;;;;;;2.10;0.73;;;20.80;99.90;;;;;;4971500;28;20050;-82
2022/10/03 13:18:29;;;;;;;2.78;0.60;;;20.90;99.90;;;;;;4964636;28;20130;-81
2022/10/03 13:21:22;;;;;;;2.28;0.63;;;20.80;99.90;;;;;;4983929;28;20023;-81
2022/10/03 13:23:51;;;;;;;2.42;0.73;;;20.90;99.90;;;;;;4955578;28;20042;-81
2022/10/03 13:26:33;;;;;;;2.50;0.50;;;20.90;99.90;;;;;;4969980;28;20114;-82
2022/10/03 13:29:24;;;;;;;2.53;0.65;;;20.90;99.90;;;;;;4968896;28;20474;-81
2022/10/03 13:32:15;;;;;;;3.22;0.68;;;20.80;99.90;;;;;;4983912;28;20415;-81
2022/10/03 13:38:39;;;;;;;2.08;0.70;;;20.80;99.90;;;;;;4971770;28;20117;-81
2022/10/03 13:41:30;;;;;;;2.63;0.70;;;20.80;99.90;;;;;;4983792;28;20029;-81
2022/10/03 13:44:09;;;;;;;3.63;0.75;;;20.60;99.90;;;;;;4986067;28;20031;-81
2022/10/03 13:47:29;;;;;;;2.10;0.57;;;20.50;99.90;;;;;;4970905;28;20022;-81
2022/10/03 13:50:01;;;;;;;2.33;0.60;;;20.40;99.90;;;;;;4931472;29;20050;-81
2022/10/03 13:52:53;;;;;;;1.63;0.55;;;20.40;99.90;;;;;;4967596;28;20035;-80
2022/10/03 13:55:42;;;;;;;2.63;0.65;;;20.60;99.90;;;;;;4967688;28;20023;-80
2022/10/03 13:58:31;;;;;;;2.50;0.70;;;20.80;99.90;;;;;;4967665;28;20157;-81
2022/10/03 14:01:10;;;;;;;4.55;0.75;;;21.20;99.90;;;;;;4970989;28;20035;-81
2022/10/03 14:04:13;;;;;;;2.03;0.65;;;21.60;99.90;;;;;;4985372;28;20027;-81
2022/10/03 14:07:17;;;;;;;2.28;0.68;;;22.00;99.90;;;;;;4969717;28;20046;-81
2022/10/03 14:10:28;;;;;;;2.30;0.60;;;22.30;99.90;;;;;;4985498;28;20031;-81
2022/10/03 14:12:54;;;;;;;1.85;0.63;;;22.30;99.90;;;;;;4969288;28;20019;-81
2022/10/03 14:15:57;;;;;;;1.75;0.40;;;22.60;99.90;;;;;;4970485;28;20352;-81
2022/10/03 14:18:37;;;;;;;2.92;0.40;;;22.90;99.90;;;;;;4970504;28;20379;-80
2022/10/03 14:21:38;;;;;;;2.58;0.60;;;22.70;99.90;;;;;;4967921;28;20097;-81
2022/10/03 14:24:09;;;;;;;1.88;0.82;;;22.30;99.90;;;;;;4970994;28;20023;-82
2022/10/03 14:26:57;;;;;;;3.53;0.70;;;22.00;99.90;;;;;;4978257;28;20039;-81
2022/10/03 14:29:56;;;;;;;3.70;0.77;;;21.80;99.90;;;;;;4981931;28;20036;-81
2022/10/03 14:32:51;;;;;;;3.05;0.80;;;21.50;99.90;;;;;;4970116;28;20121;-80
2022/10/03 14:35:40;;;;;;;2.15;0.57;;;21.10;99.90;;;;;;4970466;28;20019;-82
2022/10/03 14:38:19;;;;;;;1.23;0.50;;;20.90;99.90;;;;;;4975669;28;20027;-79
2022/10/03 14:41:12;;;;;;;4.22;0.77;;;20.80;99.90;;;;;;4968036;28;20047;-80
2022/10/03 14:43:49;;;;;;;3.35;0.80;;;20.60;99.90;;;;;;4996809;28;20027;-81
2022/10/03 14:46:19;;;;;;;2.58;0.70;;;20.50;99.90;;;;;;4972032;28;20098;-81
2022/10/03 14:48:50;;;;;;;2.97;1.00;;;20.40;99.90;;;;;;4972285;28;20022;-81
2022/10/03 14:51:25;;;;;;;3.13;0.50;;;20.30;99.90;;;;;;4973820;28;20047;-80
2022/10/03 14:54:21;;;;;;;1.23;0.57;;;20.10;99.90;;;;;;4972607;28;20069;-80
2022/10/03 14:56:53;;;;;;;1.05;0.52;;;20.00;99.90;;;;;;4983596;28;20466;-81
2022/10/03 14:59:32;;;;;;;1.03;0.40;;;19.90;99.90;;;;;;4968924;28;20046;-80
2022/10/03 15:02:01;;;;;;;3.33;0.93;;;19.70;99.90;;;;;;4969857;28;20042;-81
2022/10/03 15:04:40;;;;;;;1.40;0.47;;;19.60;99.90;;;;;;4969903;28;20407;-80
2022/10/03 15:07:07;;;;;;;2.10;0.65;;;19.40;99.90;;;;;;4968141;28;20027;-80
2022/10/03 15:09:45;;;;;;;1.75;0.45;;;19.30;99.90;;;;;;4986475;28;20501;-79